Time;durP1;ratioP1;P1;durP2;ratioP2;P2;SDS_P1;SDS_P2;PMS_P1;PMS_P2;Temp;Humidity;BMP_temperature;BMP_pressure;BME280_temperature;BME280_humidity;BME280_pressure;Samples;Min_cycle;Max_cycle;Signal;HPM_P1;HPM_P2
2022/02/24 00:01:24;;;;;;;3.30;0.70;;;;;;;5.77;98.92;101373.41;6099124;28;20056;-81
2022/02/24 00:04:25;;;;;;;1.20;0.73;;;;;;;5.87;97.48;101370.59;6099843;28;20063;-81
2022/02/24 00:07:27;;;;;;;0.55;0.40;;;;;;;5.83;97.04;101364.56;6099624;28;20052;-81
2022/02/24 00:10:28;;;;;;;0.85;0.70;;;;;;;5.89;97.56;101366.16;6099210;28;20102;-81
2022/02/24 00:13:31;;;;;;;2.17;0.70;;;;;;;5.87;98.54;101354.94;6099623;28;20484;-80
2022/02/24 00:16:32;;;;;;;0.88;0.57;;;;;;;5.89;98.23;101360.97;6099479;28;20455;-81
2022/02/24 00:19:34;;;;;;;1.38;0.65;;;;;;;5.83;98.85;101354.13;6104751;28;20147;-83
2022/02/24 00:22:36;;;;;;;3.03;0.50;;;;;;;5.80;98.96;101355.06;6138118;28;20044;-81
2022/02/24 00:25:37;;;;;;;1.45;0.50;;;;;;;5.80;99.21;101356.81;6133985;28;20048;-81
2022/02/24 00:28:40;;;;;;;1.42;0.80;;;;;;;5.80;98.40;101354.22;6138296;28;20054;-80
2022/02/24 00:31:41;;;;;;;1.52;0.55;;;;;;;5.82;98.59;101344.63;6146295;28;20047;-80
2022/02/24 00:34:43;;;;;;;1.50;0.57;;;;;;;5.85;97.68;101334.94;6135738;28;20491;-81
2022/02/24 00:37:44;;;;;;;4.07;0.85;;;;;;;5.81;97.11;101330.72;6122891;29;20052;-81
2022/02/24 00:40:45;;;;;;;3.10;0.63;;;;;;;5.87;96.73;101334.06;6122155;29;20055;-81
2022/02/24 00:43:48;;;;;;;2.22;1.10;;;;;;;5.90;96.57;101320.94;6122765;29;20055;-80
2022/02/24 00:46:49;;;;;;;1.13;0.60;;;;;;;5.90;96.03;101320.94;6130472;29;20442;-81
2022/02/24 00:49:50;;;;;;;0.93;0.40;;;;;;;5.91;95.75;101328.75;6142337;29;20059;-81
2022/02/24 00:52:56;;;;;;;0.40;0.40;;;;;;;5.87;96.47;101328.84;6145897;28;20059;-81
2022/02/24 00:55:57;;;;;;;2.08;0.43;;;;;;;5.83;97.16;101322.84;6146387;28;20058;-80
2022/02/24 00:59:00;;;;;;;0.57;0.40;;;;;;;5.84;96.44;101312.38;6133171;28;20088;-83
2022/02/24 01:02:01;;;;;;;2.35;1.08;;;;;;;5.81;97.13;101315.06;6121504;29;20447;-80
2022/02/24 01:05:03;;;;;;;4.70;1.10;;;;;;;5.77;97.28;101308.22;6122566;28;20059;-80
2022/02/24 01:08:05;;;;;;;1.38;0.52;;;;;;;5.78;97.66;101293.41;6122379;29;20062;-80
2022/02/24 01:11:06;;;;;;;0.30;0.30;;;;;;;5.76;96.65;101285.59;6121847;29;20047;-81
2022/02/24 01:14:09;;;;;;;2.35;0.82;;;;;;;5.73;96.76;101290.06;6121930;29;20059;-80
2022/02/24 01:17:10;;;;;;;0.55;0.55;;;;;;;5.69;97.78;101281.47;6122521;29;20052;-80
2022/02/24 01:20:12;;;;;;;4.78;0.80;;;;;;;5.70;97.90;101264.91;6122073;29;20059;-81
2022/02/24 01:23:13;;;;;;;0.30;0.30;;;;;;;5.62;98.24;101269.44;6121828;28;20052;-81
2022/02/24 01:26:15;;;;;;;1.75;0.63;;;;;;;5.66;98.98;101262.41;6122236;28;20530;-81
2022/02/24 01:29:17;;;;;;;0.93;0.60;;;;;;;5.55;100.00;101252.25;6122271;29;20494;-83
2022/02/24 01:32:19;;;;;;;3.65;0.55;;;;;;;5.60;100.00;101253.84;6121354;29;20048;-81
2022/02/24 01:35:20;;;;;;;0.73;0.55;;;;;;;5.66;99.30;101246.78;6122224;29;20059;-80
2022/02/24 01:38:22;;;;;;;0.93;0.40;;;;;;;5.84;99.29;101241.94;6122042;29;20059;-81
2022/02/24 01:41:23;;;;;;;4.78;0.80;;;;;;;5.95;98.92;101239.13;6124473;29;20512;-81
2022/02/24 01:44:26;;;;;;;1.30;0.75;;;;;;;5.97;98.95;101239.06;6125935;29;20048;-80
2022/02/24 01:47:27;;;;;;;0.85;0.57;;;;;;;5.98;99.53;101220.75;6125814;29;20048;-81
2022/02/24 01:50:29;;;;;;;1.98;0.70;;;;;;;5.96;100.00;101222.56;6125411;29;20056;-80
2022/02/24 01:53:30;;;;;;;3.00;0.75;;;;;;;6.00;99.29;101211.16;6125723;29;20051;-81
2022/02/24 01:56:33;;;;;;;1.45;0.80;;;;;;;6.14;98.50;101212.53;6125804;29;20692;-81
2022/02/24 01:59:36;;;;;;;2.90;0.80;;;;;;;6.16;97.65;101198.53;6125659;29;20051;-82
2022/02/24 02:02:38;;;;;;;2.78;0.90;;;;;;;6.19;98.54;101205.41;6125086;29;20048;-81
2022/02/24 02:05:39;;;;;;;3.95;0.60;;;;;;;6.20;98.53;101202.75;6125883;29;20051;-81
2022/02/24 02:08:41;;;;;;;5.50;0.60;;;;;;;6.21;99.47;101186.19;6125614;29;20059;-81
2022/02/24 02:11:42;;;;;;;0.88;0.80;;;;;;;6.19;99.00;101180.19;6124737;29;20499;-81
2022/02/24 02:14:45;;;;;;;0.68;0.50;;;;;;;6.20;99.55;101171.44;6125136;29;20055;-81
2022/02/24 02:17:47;;;;;;;1.80;0.65;;;;;;;6.23;98.77;101175.72;6125391;29;20055;-81
2022/02/24 02:20:51;;;;;;;0.88;0.68;;;;;;;6.28;99.08;101186.91;6132285;29;20039;-81
2022/02/24 02:23:52;;;;;;;2.40;1.00;;;;;;;6.30;99.73;101172.88;6137168;29;20055;-82
2022/02/24 02:26:54;;;;;;;1.10;0.77;;;;;;;6.27;98.90;101165.16;6125392;29;20503;-81
2022/02/24 02:29:55;;;;;;;2.92;0.90;;;;;;;6.37;99.64;101167.50;6129424;29;20043;-82
2022/02/24 02:32:57;;;;;;;2.92;0.80;;;;;;;6.32;100.00;101159.81;6140280;28;20180;-82
2022/02/24 02:35:59;;;;;;;1.02;0.93;;;;;;;6.32;100.00;101155.44;6148860;28;20047;-82
2022/02/24 02:39:01;;;;;;;0.70;0.45;;;;;;;6.38;99.97;101159.63;6148710;28;20047;-81
2022/02/24 02:42:03;;;;;;;2.20;1.08;;;;;;;6.43;99.33;101143.81;6140291;28;20048;-82
2022/02/24 02:45:07;;;;;;;2.28;0.90;;;;;;;6.43;98.60;101144.66;6146347;29;20058;-81
2022/02/24 02:48:08;;;;;;;2.88;1.33;;;;;;;6.45;98.05;101152.44;6148621;28;20059;-81
2022/02/24 02:51:12;;;;;;;1.98;0.63;;;;;;;6.47;98.69;101146.28;6147587;28;20055;-82
2022/02/24 02:54:13;;;;;;;5.03;0.80;;;;;;;6.52;98.70;101139.19;6148344;28;20419;-83
2022/02/24 02:57:15;;;;;;;1.40;0.82;;;;;;;6.52;97.71;101139.19;6138087;28;20055;-80
2022/02/24 03:00:18;;;;;;;2.83;1.02;;;;;;;6.53;98.57;101132.19;6147442;29;20458;-81
2022/02/24 03:03:24;;;;;;;2.13;0.60;;;;;;;6.55;95.97;101126.03;6148354;28;20130;-82
2022/02/24 03:06:27;;;;;;;2.15;1.00;;;;;;;6.65;96.59;101118.78;6147806;28;20205;-83
2022/02/24 03:09:29;;;;;;;1.75;0.85;;;;;;;6.72;94.62;101127.25;6148715;28;20051;-82
2022/02/24 03:12:35;;;;;;;4.72;0.70;;;;;;;6.70;94.33;101113.41;6147198;28;20415;-81
2022/02/24 03:15:36;;;;;;;2.72;1.10;;;;;;;6.70;94.42;101116.00;6148279;28;20054;-81
2022/02/24 03:18:38;;;;;;;2.40;1.00;;;;;;;6.79;93.84;101110.50;6147914;28;20051;-82
2022/02/24 03:21:40;;;;;;;4.20;1.00;;;;;;;6.75;95.32;101101.03;6147408;28;20047;-80
2022/02/24 03:24:41;;;;;;;5.78;1.23;;;;;;;6.76;95.05;101105.38;6147694;28;20050;-82
2022/02/24 03:27:43;;;;;;;3.28;1.05;;;;;;;6.70;95.31;101087.28;6147849;28;20062;-81
2022/02/24 03:30:44;;;;;;;3.92;1.13;;;;;;;6.68;95.80;101089.97;6147253;28;20051;-81
2022/02/24 03:33:46;;;;;;;0.98;0.68;;;;;;;6.61;96.66;101089.28;6147670;28;20059;-82
2022/02/24 03:36:48;;;;;;;1.58;1.00;;;;;;;6.65;96.22;101092.66;6147716;28;20055;-81
2022/02/24 03:39:50;;;;;;;2.63;0.70;;;;;;;6.69;96.18;101090.81;6144857;28;20050;-81
2022/02/24 03:42:51;;;;;;;2.00;1.00;;;;;;;6.66;96.46;101091.75;6136013;28;20051;-82
2022/02/24 03:45:53;;;;;;;6.18;1.00;;;;;;;6.70;96.87;101098.59;6139476;28;20055;-80
2022/02/24 03:48:54;;;;;;;1.90;0.80;;;;;;;6.68;96.86;101083.88;6138047;28;20039;-82
2022/02/24 03:51:57;;;;;;;0.80;0.70;;;;;;;6.65;96.75;101083.97;6142304;29;20059;-81
2022/02/24 03:54:58;;;;;;;0.75;0.43;;;;;;;6.61;97.88;101083.19;6139363;28;20070;-81
2022/02/24 03:57:59;;;;;;;5.50;1.00;;;;;;;6.57;98.34;101068.53;6147228;28;20047;-84
2022/02/24 04:01:01;;;;;;;4.35;1.10;;;;;;;6.60;98.75;101078.88;6146871;28;20507;-81
2022/02/24 04:04:02;;;;;;;4.97;1.38;;;;;;;6.58;99.16;101068.47;6142862;28;20047;-80
2022/02/24 04:07:06;;;;;;;1.25;0.88;;;;;;;6.58;98.73;101057.19;6131400;29;20060;-82
2022/02/24 04:10:08;;;;;;;2.65;1.05;;;;;;;6.56;99.49;101061.63;6122999;29;20063;-81
2022/02/24 04:13:09;;;;;;;1.67;0.88;;;;;;;6.55;100.00;101058.16;6122759;28;20499;-81
2022/02/24 04:16:11;;;;;;;3.35;0.90;;;;;;;6.54;100.00;101051.22;6123282;29;20048;-81
2022/02/24 04:19:12;;;;;;;2.22;1.10;;;;;;;6.52;100.00;101041.72;6122751;29;20047;-81
2022/02/24 04:22:15;;;;;;;2.55;0.98;;;;;;;6.55;100.00;101033.81;6138443;29;20051;-82
2022/02/24 04:25:16;;;;;;;2.70;0.75;;;;;;;6.54;100.00;101032.06;6137957;28;20051;-81
2022/02/24 04:28:18;;;;;;;8.75;2.42;;;;;;;6.51;100.00;101035.66;6143114;28;20055;-81
2022/02/24 04:31:19;;;;;;;4.03;1.25;;;;;;;6.54;100.00;101032.94;6137737;28;20051;-81
2022/02/24 04:34:20;;;;;;;2.95;1.00;;;;;;;6.47;100.00;101034.03;6130624;29;20056;-81
2022/02/24 04:37:23;;;;;;;2.40;0.88;;;;;;;6.46;100.00;101028.88;6123104;29;20048;-82
2022/02/24 04:40:24;;;;;;;4.72;1.30;;;;;;;6.49;100.00;101020.91;6122039;29;20052;-82
2022/02/24 04:43:26;;;;;;;1.23;1.10;;;;;;;6.51;100.00;101026.97;6122648;29;20050;-81
2022/02/24 04:46:27;;;;;;;1.00;0.90;;;;;;;6.50;100.00;101012.22;6131272;28;20052;-82
2022/02/24 04:49:28;;;;;;;2.83;1.00;;;;;;;6.49;100.00;101006.09;6146426;28;20047;-82
2022/02/24 04:52:31;;;;;;;0.55;0.47;;;;;;;6.49;100.00;101000.03;6143736;28;20074;-82
2022/02/24 04:55:32;;;;;;;3.05;0.93;;;;;;;6.46;100.00;100995.78;6140075;29;20495;-81
2022/02/24 04:58:34;;;;;;;8.75;1.27;;;;;;;6.45;100.00;100995.81;6146069;28;20055;-80
2022/02/24 05:01:35;;;;;;;6.95;1.23;;;;;;;6.44;100.00;100994.13;6145776;28;20078;-82
2022/02/24 05:04:37;;;;;;;3.50;1.55;;;;;;;6.40;100.00;100990.75;6145969;28;20149;-84
2022/02/24 05:07:39;;;;;;;1.77;1.25;;;;;;;6.42;100.00;100991.56;6146145;28;20051;-83
2022/02/24 05:10:41;;;;;;;3.40;0.93;;;;;;;6.46;100.00;100990.56;6145744;28;20054;-81
2022/02/24 05:13:42;;;;;;;2.33;1.02;;;;;;;6.46;100.00;100992.31;6147102;28;20525;-81
2022/02/24 05:16:44;;;;;;;4.13;1.08;;;;;;;6.47;100.00;100992.25;6138045;28;20063;-82
2022/02/24 05:19:45;;;;;;;2.08;1.10;;;;;;;6.51;100.00;100987.81;6126521;29;20056;-81
2022/02/24 05:22:48;;;;;;;4.93;1.65;;;;;;;6.49;100.00;100985.22;6126052;29;20055;-81
2022/02/24 05:25:49;;;;;;;4.43;1.40;;;;;;;6.50;100.00;100991.31;6126387;29;20055;-82
2022/02/24 05:28:50;;;;;;;6.75;1.05;;;;;;;6.55;100.00;100977.22;6127120;29;20540;-81
2022/02/24 05:32:03;;;;;;;4.43;0.90;;;;;;;6.58;100.00;100978.84;6125684;29;20043;-82
2022/02/24 05:35:11;;;;;;;3.17;1.27;;;;;;;6.60;100.00;100977.06;6115110;29;20048;-81
2022/02/24 05:38:13;;;;;;;2.55;0.93;;;;;;;6.66;100.00;100973.38;6119203;29;20047;-81
2022/02/24 05:41:15;;;;;;;2.00;1.20;;;;;;;6.64;100.00;100975.19;6108787;29;20048;-82
2022/02/24 05:44:32;;;;;;;0.88;0.80;;;;;;;6.63;100.00;100963.88;6117475;28;20043;-81
2022/02/24 05:47:33;;;;;;;6.90;1.48;;;;;;;6.55;100.00;100960.69;6126806;29;20064;-82
2022/02/24 05:50:41;;;;;;;4.57;1.10;;;;;;;6.60;100.00;100957.03;6126261;29;20047;-80
2022/02/24 05:53:44;;;;;;;3.03;1.27;;;;;;;6.53;100.00;100955.50;6111912;28;20485;-82
2022/02/24 05:56:45;;;;;;;2.97;1.42;;;;;;;6.54;100.00;100952.00;6102820;28;20447;-83
2022/02/24 05:59:46;;;;;;;4.00;1.10;;;;;;;6.54;100.00;100944.19;6102728;29;20484;-83
2022/02/24 06:02:48;;;;;;;7.03;1.58;;;;;;;6.53;100.00;100945.06;6102151;28;20052;-82
2022/02/24 06:05:51;;;;;;;3.58;1.10;;;;;;;6.49;100.00;100940.84;6102487;28;20052;-82
2022/02/24 06:08:54;;;;;;;4.50;1.70;;;;;;;6.46;100.00;100948.78;6102448;29;20055;-82
2022/02/24 06:11:55;;;;;;;5.40;0.95;;;;;;;6.49;100.00;100956.50;6101882;29;20059;-82
2022/02/24 06:14:56;;;;;;;3.92;1.02;;;;;;;6.50;100.00;100954.78;6102624;29;20488;-82
2022/02/24 06:17:58;;;;;;;5.43;1.30;;;;;;;6.59;100.00;100951.84;6102514;29;20071;-82
2022/02/24 06:21:00;;;;;;;1.23;1.02;;;;;;;6.52;100.00;100953.81;6115364;29;20056;-81
2022/02/24 06:24:02;;;;;;;2.47;1.40;;;;;;;6.51;100.00;100952.09;6125686;29;20142;-82
2022/02/24 06:27:04;;;;;;;4.32;1.17;;;;;;;6.48;100.00;100940.91;6125372;28;20055;-82
2022/02/24 06:30:06;;;;;;;2.58;1.42;;;;;;;6.54;100.00;100938.97;6125546;29;20051;-82
2022/02/24 06:33:08;;;;;;;1.95;1.38;;;;;;;6.53;100.00;100929.41;6139183;28;20507;-82
2022/02/24 06:36:09;;;;;;;4.65;1.27;;;;;;;6.45;100.00;100926.22;6149530;28;20059;-81
2022/02/24 06:39:12;;;;;;;2.22;0.77;;;;;;;6.44;100.00;100926.25;6149186;28;20427;-81
2022/02/24 06:42:13;;;;;;;3.08;1.23;;;;;;;6.46;100.00;100914.84;6148747;28;20387;-82
2022/02/24 06:45:15;;;;;;;4.03;1.00;;;;;;;6.45;100.00;100909.66;6140852;28;20051;-81
2022/02/24 06:48:17;;;;;;;1.45;0.90;;;;;;;6.46;100.00;100909.63;6149404;28;20055;-82
2022/02/24 06:51:18;;;;;;;6.47;1.13;;;;;;;6.50;100.00;100898.19;6140853;28;20078;-82
2022/02/24 06:54:21;;;;;;;4.97;1.17;;;;;;;6.55;100.00;100895.41;6140696;29;20051;-82
2022/02/24 06:57:22;;;;;;;2.75;0.93;;;;;;;6.51;100.00;100899.88;6149065;28;20056;-82
2022/02/24 07:00:24;;;;;;;4.20;1.55;;;;;;;6.53;100.00;100900.66;6148566;28;20210;-82
2022/02/24 07:03:26;;;;;;;5.28;1.88;;;;;;;6.59;100.00;100899.63;6148826;28;20047;-82
2022/02/24 07:06:27;;;;;;;3.28;1.00;;;;;;;6.54;100.00;100886.75;6148880;29;20517;-82
2022/02/24 07:09:31;;;;;;;5.68;1.17;;;;;;;6.61;100.00;100898.66;6148491;28;20406;-82
2022/02/24 07:12:32;;;;;;;1.45;0.85;;;;;;;6.63;100.00;100889.91;6148080;28;20069;-82
2022/02/24 07:15:33;;;;;;;3.05;0.90;;;;;;;6.70;100.00;100886.19;6148478;28;20059;-82
2022/02/24 07:18:35;;;;;;;2.45;1.10;;;;;;;6.70;100.00;100880.97;6148959;28;20055;-82
2022/02/24 07:21:36;;;;;;;2.45;1.10;;;;;;;6.83;100.00;100880.47;6148189;28;20059;-83
2022/02/24 07:24:39;;;;;;;6.25;1.15;;;;;;;6.74;100.00;100886.03;6148627;28;20644;-82
2022/02/24 07:27:41;;;;;;;6.97;1.48;;;;;;;6.86;100.00;100877.78;6148803;28;20058;-82
2022/02/24 07:30:42;;;;;;;0.88;0.77;;;;;;;6.81;100.00;100878.81;6147858;28;20051;-82
2022/02/24 07:33:44;;;;;;;4.78;2.60;;;;;;;7.01;100.00;100868.53;6126065;28;20419;-81
2022/02/24 07:36:45;;;;;;;3.33;1.40;;;;;;;6.97;100.00;100860.84;6134817;29;20058;-82
2022/02/24 07:39:48;;;;;;;2.65;1.17;;;;;;;6.99;100.00;100856.41;6127953;28;20052;-82
2022/02/24 07:42:59;;;;;;;2.13;1.08;;;;;;;7.09;100.00;100849.94;6124212;29;20044;-82
2022/02/24 07:46:00;;;;;;;7.93;1.70;;;;;;;7.16;100.00;100840.09;6119334;29;20051;-83
2022/02/24 07:49:02;;;;;;;1.73;1.20;;;;;;;7.11;100.00;100835.91;6100505;29;20053;-82
2022/02/24 07:52:06;;;;;;;1.90;1.05;;;;;;;7.12;100.00;100831.53;6100360;28;20056;-80
2022/02/24 07:55:09;;;;;;;3.03;1.02;;;;;;;7.21;100.00;100827.72;6100852;29;20059;-80
2022/02/24 07:58:11;;;;;;;2.55;1.05;;;;;;;7.20;100.00;100823.41;6100135;28;20211;-79
2022/02/24 08:01:12;;;;;;;4.45;1.02;;;;;;;7.37;100.00;100823.63;6111580;28;20048;-80
2022/02/24 08:04:15;;;;;;;8.27;1.23;;;;;;;7.36;100.00;100821.91;6138228;29;20051;-82
2022/02/24 08:07:16;;;;;;;3.28;1.40;;;;;;;7.38;100.00;100823.53;6108456;28;20055;-81
2022/02/24 08:10:19;;;;;;;4.57;1.77;;;;;;;7.38;100.00;100818.31;6112152;29;20060;-80
2022/02/24 08:13:20;;;;;;;6.68;1.30;;;;;;;7.34;100.00;100811.50;6133068;28;20051;-81
2022/02/24 08:16:22;;;;;;;4.38;1.55;;;;;;;7.37;100.00;100813.16;6116806;28;20420;-80
2022/02/24 08:19:23;;;;;;;3.72;0.73;;;;;;;7.39;100.00;100813.94;6118303;29;20054;-79
2022/02/24 08:22:25;;;;;;;5.72;1.35;;;;;;;7.49;100.00;100809.19;6115781;29;20056;-80
2022/02/24 08:25:28;;;;;;;3.80;1.17;;;;;;;7.42;100.00;100797.28;6120088;29;20051;-79
2022/02/24 08:28:30;;;;;;;3.25;1.00;;;;;;;7.38;100.00;100791.31;6118294;29;20078;-81
2022/02/24 08:31:31;;;;;;;2.55;1.02;;;;;;;7.43;100.00;100789.38;6117233;28;20047;-79
2022/02/24 08:34:33;;;;;;;3.63;1.38;;;;;;;7.48;100.00;100779.59;6111418;28;20044;-80
2022/02/24 08:37:35;;;;;;;2.38;1.42;;;;;;;7.44;99.00;100766.69;6129313;28;20060;-80
2022/02/24 08:40:37;;;;;;;4.47;1.20;;;;;;;7.41;99.63;100765.06;6122786;28;20078;-81
2022/02/24 08:43:39;;;;;;;2.50;1.13;;;;;;;7.33;100.00;100760.13;6122832;29;20059;-80
2022/02/24 08:46:40;;;;;;;3.30;1.15;;;;;;;7.35;100.00;100752.22;6122587;29;20044;-79
2022/02/24 08:49:41;;;;;;;1.75;1.00;;;;;;;7.44;100.00;100751.84;6122294;29;20051;-81
2022/02/24 08:53:03;;;;;;;9.50;2.30;;;;;;;7.40;100.00;100747.66;6134835;28;20046;-82
2022/02/24 08:56:06;;;;;;;2.63;1.30;;;;;;;7.32;100.00;100739.28;6104025;29;20052;-81
2022/02/24 08:59:07;;;;;;;2.45;0.95;;;;;;;7.33;100.00;100738.38;6192027;28;20053;-80
2022/02/24 09:02:09;;;;;;;3.70;1.65;;;;;;;7.30;99.95;100731.50;6198783;28;20431;-81
2022/02/24 09:05:10;;;;;;;2.25;1.20;;;;;;;7.24;99.79;100728.28;6124838;28;20051;-81
2022/02/24 09:08:12;;;;;;;2.30;1.23;;;;;;;7.35;99.94;100720.84;6144086;28;20101;-78
2022/02/24 09:11:15;;;;;;;3.35;0.88;;;;;;;7.29;99.81;100721.09;6172860;28;20514;-79
2022/02/24 09:14:16;;;;;;;3.15;1.15;;;;;;;7.32;100.00;100708.78;6123008;29;20491;-80
2022/02/24 09:17:17;;;;;;;3.80;1.40;;;;;;;7.30;100.00;100696.66;6127025;28;20063;-79
2022/02/24 09:20:19;;;;;;;5.95;1.08;;;;;;;7.29;100.00;100695.81;6125796;28;20048;-80
2022/02/24 09:23:20;;;;;;;2.28;1.00;;;;;;;7.34;100.00;100693.88;6126388;28;20060;-81
2022/02/24 09:26:23;;;;;;;8.98;3.13;;;;;;;7.28;100.00;100688.06;6140723;29;20051;-79
2022/02/24 09:29:24;;;;;;;1.50;0.98;;;;;;;7.34;100.00;100695.63;6137815;29;20055;-80
2022/02/24 09:32:26;;;;;;;1.23;0.98;;;;;;;7.32;100.00;100687.84;6141833;28;20129;-80
2022/02/24 09:35:27;;;;;;;2.08;0.98;;;;;;;7.37;100.00;100683.28;6150585;28;20134;-78
2022/02/24 09:38:29;;;;;;;2.47;1.10;;;;;;;7.34;100.00;100667.72;6150505;28;20428;-80
2022/02/24 09:41:31;;;;;;;1.25;0.93;;;;;;;7.41;100.00;100664.88;6128649;28;20062;-79
2022/02/24 09:44:33;;;;;;;3.28;1.38;;;;;;;7.46;100.00;100665.53;6158134;28;20047;-78
2022/02/24 09:47:37;;;;;;;2.63;1.30;;;;;;;7.54;100.00;100663.41;6128274;28;20058;-79
2022/02/24 09:50:39;;;;;;;3.45;1.00;;;;;;;7.64;100.00;100659.53;6174613;28;20056;-82
2022/02/24 09:53:41;;;;;;;11.23;1.83;;;;;;;7.67;99.29;100643.69;6251901;28;20056;-82
2022/02/24 09:56:43;;;;;;;3.90;1.05;;;;;;;7.72;97.69;100638.25;6251517;28;20053;-83
2022/02/24 09:59:45;;;;;;;6.38;1.17;;;;;;;7.73;97.45;100622.50;6200829;28;20060;-79
2022/02/24 10:02:46;;;;;;;6.07;1.52;;;;;;;7.82;94.42;100621.25;6226821;28;20053;-78
2022/02/24 10:05:48;;;;;;;2.05;1.15;;;;;;;7.80;93.56;100612.63;6250776;28;20508;-78
2022/02/24 10:08:49;;;;;;;4.72;1.27;;;;;;;7.84;91.74;100619.41;6250455;28;20058;-79
2022/02/24 10:12:04;;;;;;;4.13;1.20;;;;;;;8.06;90.76;100614.09;6249013;28;20457;-78
2022/02/24 10:15:13;;;;;;;7.03;1.63;;;;;;;8.13;91.56;100600.66;6250612;28;20402;-83
2022/02/24 10:18:17;;;;;;;6.68;1.50;;;;;;;8.33;92.86;100602.34;6250542;28;20057;-80
2022/02/24 10:21:20;;;;;;;3.22;0.90;;;;;;;8.46;91.06;100591.34;6167751;28;20065;-79
2022/02/24 10:24:24;;;;;;;1.58;1.00;;;;;;;8.59;89.51;100580.22;6132787;29;20474;-79
2022/02/24 10:27:28;;;;;;;5.00;1.50;;;;;;;8.69;89.01;100570.13;6143324;28;20047;-80
2022/02/24 10:30:30;;;;;;;10.52;1.88;;;;;;;8.62;85.77;100558.25;6124458;29;20047;-79
2022/02/24 10:33:32;;;;;;;1.45;1.17;;;;;;;8.66;85.97;100548.47;6134700;29;20052;-79
2022/02/24 10:36:36;;;;;;;2.97;1.23;;;;;;;8.62;87.75;100545.16;6149367;28;20581;-82
2022/02/24 10:39:37;;;;;;;7.93;1.88;;;;;;;8.69;89.29;100536.06;6148839;28;20078;-79
2022/02/24 10:42:40;;;;;;;3.67;1.42;;;;;;;8.83;87.33;100531.00;6148232;28;20055;-79
2022/02/24 10:45:43;;;;;;;4.43;1.20;;;;;;;9.03;85.53;100514.25;6149561;28;20055;-79
2022/02/24 10:48:50;;;;;;;2.33;1.05;;;;;;;9.25;83.79;100506.16;6149219;28;20051;-80
2022/02/24 10:52:09;;;;;;;3.90;1.27;;;;;;;9.37;83.00;100500.28;6148723;28;20054;-79
2022/02/24 10:55:12;;;;;;;3.92;1.17;;;;;;;9.59;82.74;100470.31;6118191;28;20526;-83
2022/02/24 10:58:16;;;;;;;1.65;1.30;;;;;;;9.55;82.13;100474.88;6113367;29;20471;-80
2022/02/24 11:01:19;;;;;;;1.73;1.02;;;;;;;9.55;82.01;100467.00;6111380;29;20052;-80
2022/02/24 11:04:20;;;;;;;16.30;4.88;;;;;;;9.40;79.31;100463.41;6118625;28;20048;-80
2022/02/24 11:07:23;;;;;;;3.10;0.90;;;;;;;9.36;80.43;100461.03;6106826;28;20511;-80
2022/02/24 11:10:24;;;;;;;5.72;1.73;;;;;;;9.45;81.24;100449.19;6109631;28;20526;-82
2022/02/24 11:13:29;;;;;;;2.38;1.20;;;;;;;9.26;79.35;100463.28;6106956;29;20060;-81
2022/02/24 11:16:31;;;;;;;3.63;1.30;;;;;;;9.37;82.39;100432.09;6101525;28;20062;-81
2022/02/24 11:19:32;;;;;;;2.85;1.33;;;;;;;9.45;78.58;100446.56;6101221;28;20067;-79
2022/02/24 11:22:34;;;;;;;3.08;1.10;;;;;;;9.46;78.53;100428.13;6110212;28;20054;-80
2022/02/24 11:25:47;;;;;;;0.60;0.50;;;;;;;9.54;76.55;100431.22;6148312;28;20510;-79
2022/02/24 11:28:54;;;;;;;1.88;0.68;;;;;;;9.66;79.01;100416.56;6147902;28;20058;-79
2022/02/24 11:32:01;;;;;;;3.15;0.70;;;;;;;9.56;78.63;100420.63;6147419;28;20059;-79
2022/02/24 11:35:07;;;;;;;0.82;0.40;;;;;;;9.44;79.02;100416.88;6147633;28;20058;-80
2022/02/24 11:38:13;;;;;;;3.42;0.70;;;;;;;9.49;81.64;100388.59;6147774;28;20066;-78
2022/02/24 11:41:17;;;;;;;4.13;0.60;;;;;;;9.48;79.37;100409.69;6147130;28;20055;-78
2022/02/24 11:44:38;;;;;;;2.78;1.00;;;;;;;9.35;80.71;100389.34;6147753;28;20051;-79
2022/02/24 11:47:57;;;;;;;0.63;0.63;;;;;;;9.37;82.31;100384.06;6147814;28;20063;-78
2022/02/24 11:51:00;;;;;;;2.85;0.93;;;;;;;9.34;81.00;100373.72;6146908;28;20057;-78
2022/02/24 11:54:03;;;;;;;2.83;0.70;;;;;;;9.34;82.93;100357.97;6147912;28;20072;-79
2022/02/24 11:57:26;;;;;;;1.73;0.70;;;;;;;9.24;83.64;100356.81;6147874;28;20054;-77
2022/02/24 12:00:28;;;;;;;1.40;0.75;;;;;;;9.31;84.78;100356.41;6143550;28;20044;-79
2022/02/24 12:03:55;;;;;;;1.60;0.70;;;;;;;9.22;83.94;100358.63;6123442;29;20048;-80
2022/02/24 12:06:59;;;;;;;1.20;0.65;;;;;;;9.10;85.33;100347.06;6123794;29;20499;-77
2022/02/24 12:10:11;;;;;;;2.92;0.80;;;;;;;9.07;86.03;100347.22;6123390;29;20055;-78
2022/02/24 12:13:30;;;;;;;0.47;0.40;;;;;;;8.99;86.71;100333.66;6123628;28;20558;-78
2022/02/24 12:16:32;;;;;;;1.40;0.80;;;;;;;8.99;86.35;100308.28;6123575;29;20058;-78
2022/02/24 12:19:40;;;;;;;2.13;0.45;;;;;;;9.05;86.07;100296.66;6123264;29;20059;-79
2022/02/24 12:22:43;;;;;;;1.15;0.85;;;;;;;9.11;86.96;100285.84;6129172;29;20055;-78
2022/02/24 12:25:44;;;;;;;1.67;0.70;;;;;;;9.13;86.39;100266.47;6137907;28;20100;-76
2022/02/24 12:28:46;;;;;;;0.82;0.60;;;;;;;9.25;87.00;100257.06;6146828;28;20055;-78
2022/02/24 12:31:53;;;;;;;0.95;0.60;;;;;;;9.30;85.71;100243.72;6136666;28;20051;-76
2022/02/24 12:34:54;;;;;;;0.60;0.60;;;;;;;9.47;84.56;100237.53;6143208;29;20055;-76
2022/02/24 12:37:56;;;;;;;1.08;0.50;;;;;;;9.51;85.95;100231.16;6132195;28;20055;-76
2022/02/24 12:40:59;;;;;;;6.53;0.70;;;;;;;9.84;85.53;100220.50;6123827;29;20052;-78
2022/02/24 12:44:01;;;;;;;4.15;0.55;;;;;;;10.25;83.65;100214.59;6137568;28;20066;-80
2022/02/24 12:47:05;;;;;;;3.92;1.48;;;;;;;11.06;81.80;100213.00;6147440;28;20047;-80
2022/02/24 12:50:07;;;;;;;1.25;0.45;;;;;;;11.29;77.27;100202.78;6146447;28;20059;-78
2022/02/24 12:53:10;;;;;;;3.92;1.02;;;;;;;11.92;73.17;100181.06;6147082;28;20051;-77
2022/02/24 12:56:12;;;;;;;1.67;1.23;;;;;;;11.58;73.53;100182.44;6143262;28;20051;-77
2022/02/24 12:59:15;;;;;;;5.75;0.77;;;;;;;11.16;73.96;100181.69;6139624;28;20066;-78
2022/02/24 13:02:18;;;;;;;1.30;0.95;;;;;;;10.81;76.27;100173.44;6146848;28;20059;-81
2022/02/24 13:05:21;;;;;;;1.50;0.40;;;;;;;10.58;77.03;100177.50;6146947;28;20384;-80
2022/02/24 13:11:43;;;;;;;0.85;0.63;;;;;;;10.26;81.35;100158.50;6145841;29;20051;-78
2022/02/24 13:14:46;;;;;;;0.40;0.40;;;;;;;10.16;81.80;100161.66;6146639;28;20055;-78
2022/02/24 13:17:49;;;;;;;1.05;0.50;;;;;;;9.99;81.86;100164.47;6146239;28;20058;-78
2022/02/24 13:21:00;;;;;;;1.02;0.65;;;;;;;9.85;81.46;100153.94;6145548;28;20074;-80
2022/02/24 13:24:02;;;;;;;1.30;0.60;;;;;;;9.79;83.39;100152.53;6129005;28;20446;-78
2022/02/24 13:27:06;;;;;;;1.67;0.68;;;;;;;9.66;83.20;100144.53;6122234;28;20052;-77
2022/02/24 13:30:12;;;;;;;1.75;1.13;;;;;;;9.63;85.66;100142.13;6119119;28;20052;-78
2022/02/24 13:33:16;;;;;;;0.65;0.65;;;;;;;9.62;85.45;100135.16;6135556;29;20051;-77
2022/02/24 13:36:17;;;;;;;1.50;0.70;;;;;;;9.73;87.05;100138.94;6134116;28;20062;-78
2022/02/24 13:39:32;;;;;;;2.58;1.15;;;;;;;9.55;87.41;100136.47;6134737;29;20067;-77
2022/02/24 13:42:33;;;;;;;1.08;0.55;;;;;;;9.55;87.51;100141.72;6125604;29;20098;-76
2022/02/24 13:45:35;;;;;;;1.98;1.00;;;;;;;9.53;85.87;100135.69;6126339;29;20051;-79
2022/02/24 13:48:42;;;;;;;1.52;0.60;;;;;;;9.45;86.90;100121.34;6126199;28;20059;-78
2022/02/24 13:51:45;;;;;;;1.08;0.75;;;;;;;9.54;86.08;100108.56;6125667;29;20060;-80
2022/02/24 13:54:54;;;;;;;1.70;0.73;;;;;;;9.40;85.14;100104.13;6126004;29;20059;-79
2022/02/24 13:57:57;;;;;;;;;;;;;;;9.33;86.36;100105.41;6138941;29;20426;-80
2022/02/24 14:01:03;;;;;;;3.17;0.52;;;;;;;9.42;86.81;100098.78;6149004;28;19930;-80
2022/02/24 14:04:08;;;;;;;2.38;0.90;;;;;;;9.40;86.67;100087.53;6149841;28;20051;-80
2022/02/24 14:07:10;;;;;;;0.63;0.57;;;;;;;9.51;86.09;100085.13;6148114;28;20134;-78
2022/02/24 14:10:12;;;;;;;2.55;0.80;;;;;;;9.49;85.93;100066.00;6110787;28;20056;-75
2022/02/24 14:13:13;;;;;;;1.95;0.73;;;;;;;9.48;88.20;100069.56;6101240;29;20463;-80
2022/02/24 14:16:14;;;;;;;0.68;0.63;;;;;;;9.45;89.43;100075.00;6102098;29;20055;-80
2022/02/24 14:19:23;;;;;;;3.13;1.33;;;;;;;9.31;86.66;100062.72;6102143;29;20044;-80